createdAt,value
2019-05-26T00:00:10.495Z,8.66
2019-05-26T00:01:10.484Z,8.66
2019-05-26T00:02:10.474Z,8.70
2019-05-26T00:03:10.462Z,8.79
2019-05-26T00:04:10.453Z,8.83
2019-05-26T00:05:10.444Z,8.84
2019-05-26T00:06:10.432Z,8.94
2019-05-26T00:07:10.419Z,8.98
2019-05-26T00:08:10.410Z,8.95
2019-05-26T00:09:10.400Z,8.94
2019-05-26T00:10:10.546Z,8.94
2019-05-26T00:11:10.378Z,8.86
2019-05-26T00:12:10.366Z,8.92
2019-05-26T00:13:10.355Z,8.99
2019-05-26T00:14:10.345Z,8.94
2019-05-26T00:15:10.336Z,8.86
2019-05-26T00:16:10.325Z,8.84
2019-05-26T00:17:10.311Z,8.83
2019-05-26T00:18:10.300Z,8.81
2019-05-26T00:19:10.290Z,8.81
2019-05-26T00:20:10.280Z,8.74
2019-05-26T00:21:10.275Z,8.68
2019-05-26T00:22:10.259Z,8.66
2019-05-26T00:23:10.249Z,8.76
2019-05-26T00:24:10.237Z,8.71
2019-05-26T00:25:10.225Z,8.74
2019-05-26T00:26:10.215Z,8.61
2019-05-26T00:27:10.204Z,8.59
2019-05-26T00:28:10.194Z,8.56
2019-05-26T00:29:10.182Z,8.50
2019-05-26T00:30:10.179Z,8.53
2019-05-26T00:31:10.165Z,8.55
2019-05-26T00:32:10.151Z,8.53
2019-05-26T00:33:10.141Z,8.50
2019-05-26T00:34:10.133Z,8.43
2019-05-26T00:35:10.118Z,8.44
2019-05-26T00:36:10.107Z,8.41
2019-05-26T00:37:10.097Z,8.36
2019-05-26T00:38:10.085Z,8.38
2019-05-26T00:39:10.076Z,8.26
2019-05-26T00:40:10.064Z,8.29
2019-05-26T00:41:10.054Z,8.29
2019-05-26T00:42:10.110Z,8.29
2019-05-26T00:43:10.033Z,8.26
2019-05-26T00:44:10.023Z,8.22
2019-05-26T00:45:10.099Z,8.28
2019-05-26T00:46:10.001Z,8.20
2019-05-26T00:47:09.990Z,8.22
2019-05-26T00:48:09.989Z,8.18
2019-05-26T00:49:09.988Z,8.18
2019-05-26T00:50:09.958Z,8.22
2019-05-26T00:51:09.946Z,8.11
2019-05-26T00:52:09.935Z,8.25
2019-05-26T00:53:09.925Z,8.18
2019-05-26T00:54:09.915Z,8.12
2019-05-26T00:55:09.912Z,8.05
2019-05-26T00:56:09.892Z,8.12
2019-05-26T00:57:09.882Z,8.15
2019-05-26T00:58:09.869Z,8.07
2019-05-26T00:59:09.860Z,8.10
2019-05-26T01:00:09.848Z,8.08
2019-05-26T01:01:09.839Z,8.05
2019-05-26T01:02:09.843Z,7.98
2019-05-26T01:03:09.817Z,7.95
2019-05-26T01:04:09.808Z,8.00
2019-05-26T01:05:09.805Z,7.89
2019-05-26T01:06:09.784Z,7.90
2019-05-26T01:07:09.773Z,7.75
2019-05-26T01:08:09.764Z,7.80
2019-05-26T01:09:09.753Z,7.77
2019-05-26T01:10:09.742Z,7.86
2019-05-26T01:11:09.742Z,7.80
2019-05-26T01:12:09.721Z,7.79
2019-05-26T01:13:09.709Z,7.79
2019-05-26T01:14:09.707Z,7.79
2019-05-26T01:15:09.688Z,7.74
2019-05-26T01:16:09.680Z,7.71
2019-05-26T01:17:09.666Z,7.67
2019-05-26T01:18:09.656Z,7.63
2019-05-26T01:19:09.645Z,7.68
2019-05-26T01:20:09.635Z,7.69
2019-05-26T01:21:09.624Z,7.60
2019-05-26T01:22:09.612Z,7.55
2019-05-26T01:23:09.601Z,7.49
2019-05-26T01:24:09.590Z,7.42
2019-05-26T01:25:09.580Z,7.53
2019-05-26T01:26:09.569Z,7.60
2019-05-26T01:27:09.558Z,7.50
2019-05-26T01:28:09.547Z,7.48
2019-05-26T01:29:09.537Z,7.46
2019-05-26T01:30:09.528Z,7.49
2019-05-26T01:31:09.519Z,7.46
2019-05-26T01:32:09.578Z,7.42
2019-05-26T01:33:09.493Z,7.40
2019-05-26T01:34:09.484Z,7.46
2019-05-26T01:35:09.517Z,7.45
2019-05-26T01:36:09.477Z,7.39
2019-05-26T01:37:09.450Z,7.42
2019-05-26T01:38:23.389Z,7.40
2019-05-26T01:39:10.428Z,7.37
2019-05-26T01:40:09.418Z,7.34
2019-05-26T01:41:09.407Z,7.34
2019-05-26T01:42:09.409Z,7.32
2019-05-26T01:43:09.385Z,7.34
2019-05-26T01:44:09.376Z,7.35
2019-05-26T01:45:09.366Z,7.34
2019-05-26T01:46:09.352Z,7.35
2019-05-26T01:47:09.342Z,7.28
2019-05-26T01:48:09.331Z,7.32
2019-05-26T01:49:09.323Z,7.35
2019-05-26T01:50:09.310Z,7.32
2019-05-26T01:51:09.303Z,7.24
2019-05-26T01:52:09.288Z,7.28
2019-05-26T01:53:09.277Z,7.21
2019-05-26T01:54:09.267Z,7.31
2019-05-26T01:55:09.264Z,7.31
2019-05-26T01:56:09.245Z,7.30
2019-05-26T01:57:09.234Z,7.25
2019-05-26T01:58:09.225Z,7.21
2019-05-26T01:59:13.605Z,7.24
2019-05-26T02:00:09.202Z,7.24
2019-05-26T02:01:09.199Z,7.17
2019-05-26T02:02:09.181Z,7.16
2019-05-26T02:03:09.169Z,7.09
2019-05-26T02:04:09.218Z,7.06
2019-05-26T02:05:09.147Z,7.16
2019-05-26T02:06:09.150Z,7.16
2019-05-26T02:07:09.133Z,7.13
2019-05-26T02:08:11.822Z,7.13
2019-05-26T02:09:09.105Z,7.06
2019-05-26T02:10:09.098Z,7.07
2019-05-26T02:11:09.083Z,7.07
2019-05-26T02:12:09.071Z,7.09
2019-05-26T02:13:09.062Z,7.12
2019-05-26T02:14:09.052Z,7.12
2019-05-26T02:15:09.039Z,7.05
2019-05-26T02:16:09.029Z,7.03
2019-05-26T02:17:09.018Z,7.05
2019-05-26T02:18:09.006Z,6.97
2019-05-26T02:19:08.998Z,7.13
2019-05-26T02:20:08.985Z,7.07
2019-05-26T02:21:08.980Z,7.05
2019-05-26T02:22:08.967Z,7.03
2019-05-26T02:23:08.952Z,7.13
2019-05-26T02:24:08.956Z,7.15
2019-05-26T02:25:08.933Z,7.09
2019-05-26T02:26:08.920Z,7.06
2019-05-26T02:27:08.910Z,7.02
2019-05-26T02:28:08.899Z,7.03
2019-05-26T02:29:08.888Z,6.85
2019-05-26T02:30:08.878Z,6.94
2019-05-26T02:31:08.869Z,6.97
2019-05-26T02:32:08.857Z,6.87
2019-05-26T02:33:08.844Z,6.81
2019-05-26T02:34:08.834Z,6.85
2019-05-26T02:35:08.832Z,6.89
2019-05-26T02:36:08.821Z,6.94
2019-05-26T02:37:08.803Z,6.89
2019-05-26T02:38:08.798Z,6.91
2019-05-26T02:39:08.800Z,6.76
2019-05-26T02:40:08.768Z,6.76
2019-05-26T02:41:08.756Z,6.74
2019-05-26T02:42:08.747Z,6.70
2019-05-26T02:43:08.739Z,6.71
2019-05-26T02:44:08.728Z,6.77
2019-05-26T02:45:08.718Z,6.73
2019-05-26T02:46:08.704Z,6.62
2019-05-26T02:47:08.697Z,6.64
2019-05-26T02:48:08.684Z,6.66
2019-05-26T02:49:08.674Z,6.69
2019-05-26T02:50:08.669Z,6.81
2019-05-26T02:51:08.659Z,6.74
2019-05-26T02:52:08.655Z,6.76
2019-05-26T02:53:08.630Z,6.79
2019-05-26T02:54:08.616Z,6.76
2019-05-26T02:55:08.606Z,6.77
2019-05-26T02:56:08.595Z,6.71
2019-05-26T02:57:08.586Z,6.77
2019-05-26T02:58:08.574Z,6.74
2019-05-26T02:59:08.563Z,6.76
2019-05-26T03:00:08.558Z,6.87
2019-05-26T03:01:08.542Z,6.87
2019-05-26T03:02:08.536Z,6.95
2019-05-26T03:03:08.520Z,6.99
2019-05-26T03:04:08.509Z,6.94
2019-05-26T03:05:08.500Z,6.88
2019-05-26T03:06:08.490Z,6.89
2019-05-26T03:07:08.476Z,6.87
2019-05-26T03:08:08.468Z,6.92
2019-05-26T03:09:21.827Z,6.85
2019-05-26T03:10:09.443Z,6.84
2019-05-26T03:11:08.433Z,6.84
2019-05-26T03:12:08.422Z,6.77
2019-05-26T03:13:08.411Z,6.77
2019-05-26T03:14:08.399Z,6.73
2019-05-26T03:15:08.394Z,6.80
2019-05-26T03:16:08.379Z,6.88
2019-05-26T03:17:08.369Z,6.91
2019-05-26T03:18:08.356Z,6.95
2019-05-26T03:19:08.354Z,7.06
2019-05-26T03:20:08.335Z,7.05
2019-05-26T03:21:08.327Z,7.09
2019-05-26T03:22:08.312Z,6.95
2019-05-26T03:23:08.313Z,7.06
2019-05-26T03:24:08.295Z,6.98
2019-05-26T03:25:08.281Z,7.06
2019-05-26T03:26:08.270Z,7.02
2019-05-26T03:27:08.260Z,7.07
2019-05-26T03:28:08.249Z,7.03
2019-05-26T03:29:08.239Z,6.99
2019-05-26T03:30:08.227Z,7.05
2019-05-26T03:31:08.222Z,7.15
2019-05-26T03:32:08.211Z,7.10
2019-05-26T03:33:08.262Z,7.23
2019-05-26T03:34:08.186Z,7.23
2019-05-26T03:35:08.324Z,7.32
2019-05-26T03:36:10.711Z,7.39
2019-05-26T03:37:08.151Z,7.43
2019-05-26T03:38:08.141Z,7.45
2019-05-26T03:39:08.131Z,7.42
2019-05-26T03:40:08.122Z,7.55
2019-05-26T03:41:08.108Z,7.60
2019-05-26T03:42:08.134Z,7.57
2019-05-26T03:43:08.086Z,7.69
2019-05-26T03:44:08.077Z,7.80
2019-05-26T03:45:08.063Z,7.86
2019-05-26T03:46:08.054Z,7.83
2019-05-26T03:47:08.043Z,7.89
2019-05-26T03:48:08.033Z,8.00
2019-05-26T03:49:08.022Z,8.08
2019-05-26T03:50:08.040Z,8.10
2019-05-26T03:51:08.000Z,8.07
2019-05-26T03:52:07.990Z,8.10
2019-05-26T03:53:07.978Z,8.19
2019-05-26T03:54:07.979Z,8.15
2019-05-26T03:55:07.960Z,8.11
2019-05-26T03:56:07.946Z,8.23
2019-05-26T03:57:07.948Z,8.20
2019-05-26T03:58:07.934Z,8.37
2019-05-26T03:59:07.914Z,8.29
2019-05-26T04:00:07.906Z,8.43
2019-05-26T04:01:07.892Z,8.41
2019-05-26T04:02:07.881Z,8.48
2019-05-26T04:03:07.870Z,8.55
2019-05-26T04:04:07.862Z,8.66
2019-05-26T04:05:07.853Z,8.74
2019-05-26T04:06:07.838Z,8.70
2019-05-26T04:07:07.829Z,8.68
2019-05-26T04:08:07.821Z,8.76
2019-05-26T04:09:07.809Z,8.81
2019-05-26T04:10:07.803Z,8.87
2019-05-26T04:11:07.792Z,8.87
2019-05-26T04:12:07.774Z,8.91
2019-05-26T04:13:07.774Z,9.05
2019-05-26T04:14:07.753Z,8.98
2019-05-26T04:15:07.748Z,9.10
2019-05-26T04:16:07.734Z,9.13
2019-05-26T04:17:07.732Z,9.18
2019-05-26T04:18:07.710Z,9.23
2019-05-26T04:19:07.723Z,9.24
2019-05-26T04:20:07.689Z,9.31
2019-05-26T04:21:07.678Z,9.26
2019-05-26T04:22:07.666Z,9.35
2019-05-26T04:23:07.657Z,9.29
2019-05-26T04:24:07.646Z,9.33
2019-05-26T04:25:07.633Z,9.39
2019-05-26T04:26:07.627Z,9.46
2019-05-26T04:27:07.612Z,9.53
2019-05-26T04:28:07.604Z,9.50
2019-05-26T04:29:07.595Z,9.54
2019-05-26T04:30:07.580Z,9.60
2019-05-26T04:31:07.573Z,9.56
2019-05-26T04:32:07.561Z,9.69
2019-05-26T04:33:07.551Z,9.78
2019-05-26T04:34:07.556Z,9.84
2019-05-26T04:35:07.553Z,9.94
2019-05-26T04:36:07.515Z,9.94
2019-05-26T04:37:07.505Z,9.96
2019-05-26T04:38:07.504Z,9.94
2019-05-26T04:39:07.483Z,9.97
2019-05-26T04:40:25.098Z,10.08
2019-05-26T04:41:08.468Z,10.05
2019-05-26T04:42:07.450Z,10.12
2019-05-26T04:43:07.444Z,10.14
2019-05-26T04:44:07.430Z,10.17
2019-05-26T04:45:07.422Z,10.11
2019-05-26T04:46:07.414Z,10.14
2019-05-26T04:47:07.402Z,10.12
2019-05-26T04:48:07.390Z,10.25
2019-05-26T04:49:07.388Z,10.23
2019-05-26T04:50:07.381Z,10.32
2019-05-26T04:51:07.355Z,10.27
2019-05-26T04:52:07.345Z,10.41
2019-05-26T04:53:07.525Z,10.44
2019-05-26T04:54:07.322Z,10.52
2019-05-26T04:55:07.311Z,10.41
2019-05-26T04:56:07.302Z,10.48
2019-05-26T04:57:07.290Z,10.48
2019-05-26T04:58:07.280Z,10.61
2019-05-26T04:59:07.269Z,10.61
2019-05-26T05:00:07.266Z,10.61
2019-05-26T05:01:07.249Z,10.60
2019-05-26T05:02:07.236Z,10.59
2019-05-26T05:03:07.225Z,10.64
2019-05-26T05:04:07.215Z,10.73
2019-05-26T05:05:07.205Z,10.70
2019-05-26T05:06:07.198Z,10.66
2019-05-26T05:07:07.183Z,10.66
2019-05-26T05:08:07.174Z,10.71
2019-05-26T05:09:07.163Z,10.68
2019-05-26T05:10:07.151Z,10.79
2019-05-26T05:11:07.142Z,10.74
2019-05-26T05:12:07.133Z,10.78
2019-05-26T05:13:07.120Z,10.82
2019-05-26T05:14:07.108Z,10.86
2019-05-26T05:15:07.100Z,10.89
2019-05-26T05:16:07.103Z,10.91
2019-05-26T05:17:07.075Z,11.07
2019-05-26T05:18:07.070Z,11.11
2019-05-26T05:19:07.056Z,11.10
2019-05-26T05:20:07.047Z,11.06
2019-05-26T05:21:07.034Z,11.10
2019-05-26T05:22:07.023Z,11.14
2019-05-26T05:23:07.013Z,11.19
2019-05-26T05:24:07.007Z,11.25
2019-05-26T05:25:13.897Z,11.36
2019-05-26T05:26:07.979Z,11.42
2019-05-26T05:27:06.972Z,11.55
2019-05-26T05:28:06.961Z,11.55
2019-05-26T05:29:06.949Z,11.70
2019-05-26T05:30:06.939Z,11.73
2019-05-26T05:31:06.931Z,11.90
2019-05-26T05:32:06.916Z,11.83
2019-05-26T05:33:06.904Z,11.91
2019-05-26T05:34:06.893Z,12.07
2019-05-26T05:35:06.890Z,12.20
2019-05-26T05:36:06.873Z,12.21
2019-05-26T05:37:06.861Z,12.20
2019-05-26T05:38:06.850Z,12.38
2019-05-26T05:39:06.842Z,12.53
2019-05-26T05:40:06.831Z,12.62
2019-05-26T05:41:06.817Z,12.79
2019-05-26T05:42:06.805Z,12.74
2019-05-26T05:43:06.794Z,12.75
2019-05-26T05:44:06.785Z,13.03
2019-05-26T05:45:06.777Z,12.83
2019-05-26T05:46:06.763Z,12.79
2019-05-26T05:47:06.750Z,12.89
2019-05-26T05:48:06.742Z,13.01
2019-05-26T05:49:06.728Z,13.14
2019-05-26T05:50:06.718Z,13.30
2019-05-26T05:51:06.720Z,13.42
2019-05-26T05:52:06.696Z,13.42
2019-05-26T05:53:06.686Z,13.52
2019-05-26T05:54:06.690Z,13.57
2019-05-26T05:55:06.664Z,13.55
2019-05-26T05:56:06.660Z,13.49
2019-05-26T05:57:06.645Z,13.63
2019-05-26T05:58:06.631Z,13.75
2019-05-26T05:59:06.621Z,13.82
2019-05-26T06:00:06.614Z,13.85
2019-05-26T06:01:06.601Z,14.03
2019-05-26T06:02:06.590Z,13.96
2019-05-26T06:03:06.578Z,13.70
2019-05-26T06:04:06.568Z,13.66
2019-05-26T06:05:06.557Z,13.96
2019-05-26T06:06:06.545Z,14.17
2019-05-26T06:07:06.536Z,14.35
2019-05-26T06:08:06.525Z,14.06
2019-05-26T06:09:06.513Z,14.09
2019-05-26T06:10:06.504Z,14.24
2019-05-26T06:11:15.967Z,14.36
2019-05-26T06:12:07.492Z,14.46
2019-05-26T06:13:06.471Z,14.42
2019-05-26T06:14:06.459Z,14.61
2019-05-26T06:15:06.464Z,14.57
2019-05-26T06:16:06.442Z,14.58
2019-05-26T06:17:10.219Z,14.65
2019-05-26T06:18:06.416Z,14.58
2019-05-26T06:19:06.410Z,14.70
2019-05-26T06:20:06.397Z,14.81
2019-05-26T06:21:06.385Z,14.92
2019-05-26T06:22:06.376Z,14.92
2019-05-26T06:23:06.365Z,14.98
2019-05-26T06:24:06.353Z,15.10
2019-05-26T06:25:06.345Z,15.06
2019-05-26T06:26:06.332Z,15.14
2019-05-26T06:27:06.320Z,15.17
2019-05-26T06:28:06.310Z,15.19
2019-05-26T06:29:06.301Z,15.36
2019-05-26T06:30:06.290Z,15.54
2019-05-26T06:31:06.278Z,15.49
2019-05-26T06:32:06.645Z,15.59
2019-05-26T06:33:06.255Z,15.74
2019-05-26T06:34:06.246Z,16.00
2019-05-26T06:35:06.233Z,15.92
2019-05-26T06:36:06.229Z,15.84
2019-05-26T06:37:06.212Z,15.75
2019-05-26T06:38:06.202Z,15.82
2019-05-26T06:39:06.190Z,15.75
2019-05-26T06:40:06.180Z,15.83
2019-05-26T06:41:06.169Z,15.89
2019-05-26T06:42:06.156Z,15.89
2019-05-26T06:43:06.147Z,16.09
2019-05-26T06:44:06.137Z,16.25
2019-05-26T06:45:06.125Z,16.27
2019-05-26T06:46:06.115Z,16.43
2019-05-26T06:47:06.103Z,16.21
2019-05-26T06:48:06.109Z,16.08
2019-05-26T06:49:06.090Z,16.04
2019-05-26T06:50:06.072Z,16.04
2019-05-26T06:51:06.064Z,16.05
2019-05-26T06:52:06.050Z,16.02
2019-05-26T06:53:06.040Z,16.04
2019-05-26T06:54:06.029Z,16.09
2019-05-26T06:55:06.025Z,16.14
2019-05-26T06:56:06.009Z,16.46
2019-05-26T06:57:06.000Z,16.56
2019-05-26T06:58:05.985Z,16.64
2019-05-26T06:59:05.975Z,16.57
2019-05-26T07:00:05.963Z,16.63
2019-05-26T07:01:05.953Z,16.57
2019-05-26T07:02:05.941Z,16.57
2019-05-26T07:03:05.931Z,16.63
2019-05-26T07:04:05.920Z,16.63
2019-05-26T07:05:05.914Z,16.76
2019-05-26T07:06:05.903Z,16.86
2019-05-26T07:07:05.889Z,16.96
2019-05-26T07:08:05.879Z,16.94
2019-05-26T07:09:05.867Z,17.01
2019-05-26T07:10:05.856Z,17.14
2019-05-26T07:11:05.846Z,17.22
2019-05-26T07:12:05.846Z,17.26
2019-05-26T07:13:05.825Z,17.41
2019-05-26T07:14:05.813Z,17.41
2019-05-26T07:15:05.803Z,17.46
2019-05-26T07:16:05.792Z,17.37
2019-05-26T07:17:05.781Z,17.38
2019-05-26T07:18:05.775Z,17.46
2019-05-26T07:19:05.760Z,17.31
2019-05-26T07:20:05.756Z,17.36
2019-05-26T07:21:05.738Z,17.56
2019-05-26T07:22:05.730Z,17.49
2019-05-26T07:23:07.111Z,17.28
2019-05-26T07:24:05.789Z,17.43
2019-05-26T07:25:05.697Z,17.62
2019-05-26T07:26:05.683Z,17.64
2019-05-26T07:27:05.674Z,17.78
2019-05-26T07:28:05.663Z,17.93
2019-05-26T07:29:05.653Z,17.97
2019-05-26T07:30:05.640Z,18.20
2019-05-26T07:31:05.630Z,18.42
2019-05-26T07:32:05.619Z,18.35
2019-05-26T07:33:05.610Z,18.23
2019-05-26T07:34:05.602Z,18.54
2019-05-26T07:35:05.588Z,18.47
2019-05-26T07:36:05.576Z,18.60
2019-05-26T07:37:05.566Z,18.55
2019-05-26T07:38:05.561Z,18.84
2019-05-26T07:39:05.544Z,18.65
2019-05-26T07:40:05.535Z,18.52
2019-05-26T07:41:05.522Z,18.37
2019-05-26T07:42:10.724Z,18.32
2019-05-26T07:43:06.499Z,18.35
2019-05-26T07:44:05.490Z,18.20
2019-05-26T07:45:05.481Z,18.30
2019-05-26T07:46:05.470Z,18.37
2019-05-26T07:47:05.459Z,18.35
2019-05-26T07:48:05.453Z,18.44
2019-05-26T07:49:05.440Z,18.60
2019-05-26T07:50:05.428Z,18.62
2019-05-26T07:51:05.416Z,18.67
2019-05-26T07:52:05.406Z,18.66
2019-05-26T07:53:05.395Z,18.80
2019-05-26T07:54:05.386Z,18.87
2019-05-26T07:55:05.401Z,18.82
2019-05-26T07:56:05.361Z,18.69
2019-05-26T07:57:05.351Z,18.72
2019-05-26T07:58:05.341Z,18.84
2019-05-26T07:59:05.331Z,18.63
2019-05-26T08:00:05.349Z,18.75
2019-05-26T08:01:05.367Z,18.44
2019-05-26T08:02:05.329Z,18.69
2019-05-26T08:03:05.357Z,18.69
2019-05-26T08:04:05.298Z,18.81
2019-05-26T08:05:05.294Z,18.84
2019-05-26T08:06:05.340Z,19.10
2019-05-26T08:07:05.296Z,19.29
2019-05-26T08:08:12.510Z,19.31
2019-05-26T08:09:06.269Z,19.46
2019-05-26T08:10:05.236Z,19.43
2019-05-26T08:11:05.225Z,19.26
2019-05-26T08:12:05.219Z,19.14
2019-05-26T08:13:05.196Z,19.14
2019-05-26T08:14:05.185Z,19.21
2019-05-26T08:15:05.179Z,19.21
2019-05-26T08:16:05.183Z,19.22
2019-05-26T08:17:05.179Z,19.14
2019-05-26T08:18:05.138Z,19.06
2019-05-26T08:19:05.138Z,19.04
2019-05-26T08:20:05.111Z,19.29
2019-05-26T08:21:05.125Z,19.18
2019-05-26T08:22:05.106Z,18.98
2019-05-26T08:23:05.117Z,18.95
2019-05-26T08:24:05.110Z,19.07
2019-05-26T08:25:05.075Z,18.92
2019-05-26T08:26:05.043Z,18.75
2019-05-26T08:27:05.033Z,18.84
2019-05-26T08:28:05.055Z,18.95
2019-05-26T08:29:05.025Z,19.07
2019-05-26T08:30:05.020Z,19.08
2019-05-26T08:31:05.021Z,19.22
2019-05-26T08:32:05.003Z,19.36
2019-05-26T08:33:05.020Z,19.48
2019-05-26T08:34:04.994Z,19.46
2019-05-26T08:35:04.952Z,19.71
2019-05-26T08:36:04.955Z,19.76
2019-05-26T08:37:04.943Z,19.68
2019-05-26T08:38:04.956Z,19.58
2019-05-26T08:39:04.907Z,19.55
2019-05-26T08:40:04.914Z,19.68
2019-05-26T08:41:04.903Z,19.74
2019-05-26T08:42:04.891Z,19.39
2019-05-26T08:43:04.894Z,19.36
2019-05-26T08:44:04.900Z,19.37
2019-05-26T08:45:04.868Z,19.39
2019-05-26T08:46:04.847Z,19.63
2019-05-26T08:47:04.858Z,19.84
2019-05-26T08:48:04.829Z,19.98
2019-05-26T08:49:04.826Z,19.77
2019-05-26T08:50:04.864Z,19.81
2019-05-26T08:51:04.804Z,19.86
2019-05-26T08:52:04.801Z,20.05
2019-05-26T08:53:04.818Z,20.17
2019-05-26T08:54:04.796Z,20.29
2019-05-26T08:55:04.767Z,20.31
2019-05-26T08:56:04.732Z,20.26
2019-05-26T08:57:04.751Z,20.38
2019-05-26T08:58:04.726Z,20.33
2019-05-26T08:59:04.712Z,20.57
2019-05-26T09:00:04.704Z,20.62
2019-05-26T09:01:04.676Z,20.62
2019-05-26T09:02:04.673Z,20.50
2019-05-26T09:03:04.687Z,20.23
2019-05-26T09:04:04.656Z,20.21
2019-05-26T09:05:04.654Z,20.36
2019-05-26T09:06:04.641Z,20.26
2019-05-26T09:07:04.650Z,20.26
2019-05-26T09:08:07.926Z,20.51
2019-05-26T09:09:04.626Z,20.70
2019-05-26T09:10:04.603Z,20.91
2019-05-26T09:11:04.580Z,20.95
2019-05-26T09:12:04.590Z,21.07
2019-05-26T09:13:04.590Z,21.13
2019-05-26T09:14:04.543Z,20.89
2019-05-26T09:15:04.565Z,20.99
2019-05-26T09:16:04.602Z,21.06
2019-05-26T09:17:04.554Z,21.42
2019-05-26T09:18:04.522Z,21.68
2019-05-26T09:19:04.485Z,21.82
2019-05-26T09:20:04.474Z,21.80
2019-05-26T09:21:04.542Z,21.21
2019-05-26T09:22:04.453Z,21.37
2019-05-26T09:23:04.444Z,21.21
2019-05-26T09:24:04.439Z,20.98
2019-05-26T09:25:04.425Z,20.98
2019-05-26T09:26:04.411Z,20.91
2019-05-26T09:27:04.400Z,20.79
2019-05-26T09:28:04.395Z,20.62
2019-05-26T09:29:04.381Z,20.76
2019-05-26T09:30:04.371Z,21.06
2019-05-26T09:31:04.359Z,20.91
2019-05-26T09:32:04.349Z,20.80
2019-05-26T09:33:04.342Z,20.77
2019-05-26T09:34:04.334Z,20.69
2019-05-26T09:35:04.319Z,20.47
2019-05-26T09:36:04.308Z,20.80
2019-05-26T09:37:04.298Z,21.17
2019-05-26T09:38:04.286Z,21.61
2019-05-26T09:39:04.276Z,21.71
2019-05-26T09:40:04.265Z,21.74
2019-05-26T09:41:04.255Z,21.62
2019-05-26T09:42:04.245Z,21.50
2019-05-26T09:43:15.564Z,21.53
2019-05-26T09:44:05.265Z,21.69
2019-05-26T09:45:04.219Z,21.42
2019-05-26T09:46:04.208Z,21.72
2019-05-26T09:47:04.193Z,21.64
2019-05-26T09:48:04.182Z,21.52
2019-05-26T09:49:04.179Z,21.75
2019-05-26T09:50:04.160Z,22.12
2019-05-26T09:51:04.153Z,22.67
2019-05-26T09:52:04.139Z,22.70
2019-05-26T09:53:04.129Z,22.62
2019-05-26T09:54:04.119Z,22.18
2019-05-26T09:55:04.109Z,22.33
2019-05-26T09:56:04.101Z,22.35
2019-05-26T09:57:04.087Z,22.51
2019-05-26T09:58:04.078Z,22.77
2019-05-26T09:59:04.067Z,22.86
2019-05-26T10:00:04.058Z,22.85
2019-05-26T10:01:04.050Z,22.39
2019-05-26T10:02:04.038Z,22.46
2019-05-26T10:03:04.027Z,22.10
2019-05-26T10:04:04.016Z,21.92
2019-05-26T10:05:04.015Z,21.52
2019-05-26T10:06:03.998Z,21.54
2019-05-26T10:07:03.992Z,22.03
2019-05-26T10:08:03.974Z,22.14
2019-05-26T10:09:03.963Z,21.90
2019-05-26T10:10:03.953Z,22.36
2019-05-26T10:11:03.942Z,22.15
2019-05-26T10:12:03.931Z,22.12
2019-05-26T10:13:03.921Z,21.62
2019-05-26T10:14:03.912Z,21.92
2019-05-26T10:15:03.899Z,21.59
2019-05-26T10:16:03.891Z,21.94
2019-05-26T10:17:03.881Z,21.79
2019-05-26T10:18:03.885Z,21.90
2019-05-26T10:19:03.857Z,22.28
2019-05-26T10:20:03.847Z,22.52
2019-05-26T10:21:03.835Z,22.09
2019-05-26T10:22:03.840Z,21.83
2019-05-26T10:23:03.832Z,22.12
2019-05-26T10:24:03.808Z,22.37
2019-05-26T10:25:03.793Z,22.43
2019-05-26T10:26:03.784Z,22.55
2019-05-26T10:27:03.775Z,22.64
2019-05-26T10:28:03.764Z,22.49
2019-05-26T10:29:03.769Z,22.07
2019-05-26T10:30:03.767Z,21.92
2019-05-26T10:31:03.750Z,22.39
2019-05-26T10:32:03.720Z,22.62
2019-05-26T10:33:03.710Z,23.04
2019-05-26T10:34:03.700Z,22.91
2019-05-26T10:35:03.692Z,22.51
2019-05-26T10:36:03.680Z,22.52
2019-05-26T10:37:03.669Z,22.39
2019-05-26T10:38:03.658Z,22.03
2019-05-26T10:39:03.714Z,21.77
2019-05-26T10:40:03.643Z,21.69
2019-05-26T10:41:03.627Z,21.84
2019-05-26T10:42:03.618Z,21.98
2019-05-26T10:43:03.605Z,21.82
2019-05-26T10:44:03.595Z,21.82
2019-05-26T10:45:03.596Z,21.82
2019-05-26T10:46:03.581Z,21.47
2019-05-26T10:47:03.566Z,21.28
2019-05-26T10:48:03.595Z,21.25
2019-05-26T10:49:03.547Z,21.21
2019-05-26T10:50:03.532Z,21.06
2019-05-26T10:51:06.790Z,20.98
2019-05-26T10:52:03.513Z,21.04
2019-05-26T10:53:03.499Z,20.95
2019-05-26T10:54:03.493Z,20.85
2019-05-26T10:55:03.480Z,20.85
2019-05-26T10:56:03.468Z,21.29
2019-05-26T10:57:03.479Z,21.82
2019-05-26T10:58:03.505Z,22.15
2019-05-26T10:59:03.852Z,22.28
2019-05-26T11:00:03.428Z,22.42
2019-05-26T11:01:03.422Z,22.45
2019-05-26T11:02:03.405Z,22.37
2019-05-26T11:03:03.394Z,22.33
2019-05-26T11:04:03.384Z,22.54
2019-05-26T11:05:03.373Z,22.79
2019-05-26T11:06:03.365Z,22.97
2019-05-26T11:07:03.352Z,23.07
2019-05-26T11:08:03.416Z,23.23
2019-05-26T11:09:03.330Z,23.25
2019-05-26T11:10:03.321Z,23.73
2019-05-26T11:11:03.310Z,23.35
2019-05-26T11:12:03.313Z,23.02
2019-05-26T11:13:03.289Z,22.67
2019-05-26T11:14:03.668Z,22.24
2019-05-26T11:15:03.270Z,22.10
2019-05-26T11:16:03.260Z,22.07
2019-05-26T11:17:03.271Z,22.15
2019-05-26T11:18:03.236Z,22.31
2019-05-26T11:19:03.227Z,22.46
2019-05-26T11:20:03.231Z,22.54
2019-05-26T11:21:03.207Z,22.14
2019-05-26T11:22:03.198Z,22.07
2019-05-26T11:23:03.201Z,22.02
2019-05-26T11:24:03.174Z,21.88
2019-05-26T11:25:03.169Z,21.86
2019-05-26T11:26:03.153Z,21.82
2019-05-26T11:27:09.419Z,21.84
2019-05-26T11:28:04.131Z,22.02
2019-05-26T11:29:03.121Z,22.03
2019-05-26T11:30:03.112Z,22.12
2019-05-26T11:31:03.102Z,22.06
2019-05-26T11:32:03.088Z,22.55
2019-05-26T11:33:03.076Z,23.23
2019-05-26T11:34:03.067Z,23.78
2019-05-26T11:35:03.055Z,23.79
2019-05-26T11:36:03.048Z,23.47
2019-05-26T11:37:03.067Z,22.98
2019-05-26T11:38:03.025Z,22.67
2019-05-26T11:39:03.019Z,22.35
2019-05-26T11:40:03.005Z,22.09
2019-05-26T11:41:02.993Z,22.12
2019-05-26T11:42:12.916Z,22.18
2019-05-26T11:43:15.835Z,22.20
2019-05-26T11:44:17.054Z,22.28
2019-05-26T11:45:03.950Z,22.43
2019-05-26T11:46:02.940Z,22.37
2019-05-26T11:47:02.929Z,22.39
2019-05-26T11:48:02.929Z,22.67
2019-05-26T11:49:02.906Z,23.02
2019-05-26T11:50:02.896Z,23.07
2019-05-26T11:51:02.885Z,23.46
2019-05-26T11:52:02.899Z,23.80
2019-05-26T11:53:02.865Z,23.87
2019-05-26T11:54:02.860Z,24.15
2019-05-26T11:55:02.843Z,24.06
2019-05-26T11:56:02.832Z,24.08
2019-05-26T11:57:02.821Z,23.78
2019-05-26T11:58:02.813Z,23.46
2019-05-26T11:59:02.802Z,23.47
2019-05-26T12:00:02.860Z,23.72
2019-05-26T12:01:02.780Z,24.00
2019-05-26T12:02:02.773Z,24.21
2019-05-26T12:03:02.759Z,24.50
2019-05-26T12:04:02.754Z,25.14
2019-05-26T12:05:02.741Z,24.85
2019-05-26T12:06:02.734Z,24.83
2019-05-26T12:07:04.482Z,24.71
2019-05-26T12:08:02.718Z,24.69
2019-05-26T12:09:02.698Z,24.67
2019-05-26T12:10:02.695Z,24.39
2019-05-26T12:11:02.678Z,24.02
2019-05-26T12:12:02.695Z,23.73
2019-05-26T12:13:02.661Z,23.27
2019-05-26T12:14:02.647Z,23.15
2019-05-26T12:15:02.696Z,22.90
2019-05-26T12:16:02.626Z,22.90
2019-05-26T12:17:02.614Z,22.91
2019-05-26T12:18:02.603Z,22.76
2019-05-26T12:19:02.599Z,22.86
2019-05-26T12:20:05.081Z,23.17
2019-05-26T12:21:02.573Z,23.22
2019-05-26T12:22:02.587Z,23.42
2019-05-26T12:23:02.553Z,23.35
2019-05-26T12:24:02.547Z,23.35
2019-05-26T12:25:02.538Z,23.98
2019-05-26T12:26:02.523Z,23.94
2019-05-26T12:27:02.511Z,24.24
2019-05-26T12:28:02.500Z,23.95
2019-05-26T12:29:02.493Z,24.22
2019-05-26T12:30:02.478Z,24.34
2019-05-26T12:31:02.469Z,24.76
2019-05-26T12:32:02.457Z,25.03
2019-05-26T12:33:02.445Z,24.80
2019-05-26T12:34:02.436Z,24.57
2019-05-26T12:35:02.427Z,24.37
2019-05-26T12:36:02.423Z,24.06
2019-05-26T12:37:02.410Z,23.75
2019-05-26T12:38:02.396Z,23.57
2019-05-26T12:39:02.385Z,24.12
2019-05-26T12:40:02.376Z,24.27
2019-05-26T12:41:02.366Z,24.45
2019-05-26T12:42:02.357Z,24.06
2019-05-26T12:43:02.344Z,23.75
2019-05-26T12:44:02.333Z,23.70
2019-05-26T12:45:02.328Z,23.72
2019-05-26T12:46:02.316Z,23.88
2019-05-26T12:47:02.300Z,24.12
2019-05-26T12:48:02.293Z,23.84
2019-05-26T12:49:02.283Z,23.40
2019-05-26T12:50:02.279Z,23.22
2019-05-26T12:51:02.260Z,22.98
2019-05-26T12:52:02.252Z,22.75
2019-05-26T12:53:02.242Z,22.60
2019-05-26T12:54:02.231Z,22.60
2019-05-26T12:55:02.217Z,22.49
2019-05-26T12:56:02.214Z,22.52
2019-05-26T12:57:02.198Z,22.51
2019-05-26T12:58:02.189Z,22.51
2019-05-26T12:59:02.190Z,22.51
2019-05-26T13:00:02.398Z,22.57
2019-05-26T13:01:02.158Z,22.55